Sardinia Regina — IBMS — position and weather

sailwx.info

Track history (hours):
 
Tides and Currents Weather Stations Pressure Air Temp Water Temp Dewpoint Dewpoint Depression Visibility Wind Speed Wind Dir Waves Ship Positions

Sardinia Regina

Last reported at 2016-Jul-24 07:18 UTC. Time now 2016-Jul-24 10:42 UTC.
Position N 43°31' E 007°30'.

Length 146 m; draft 5 m.

Type: Passenger vessel. MMSI: 247079000.

Date/timePositionNaut miles runAvg speedWind from/ knotsBaromVisibWave heightAir tempDewpointWater temp
2016-Jul-24 07:18N 43°31' E 007°30'1317.9
2016-Jul-24 06:34N 43°40' E 007°18'1 1.3
2016-Jul-24 05:33N 43°42' E 007°17'2 1.8
2016-Jul-24 04:33N 43°40' E 007°18'3316.3
2016-Jul-24 02:33N 43°28' E 007°60'1716.7
2016-Jul-24 01:33N 43°22' E 008°21'1616.4
2016-Jul-24 00:33N 43°16' E 008°43'1616.2
2016-Jul-23 23:33N 43°10' E 009°04'1615.7
2016-Jul-23 22:33N 43°04' E 009°23'25 1.1
2016-Jul-23 00:21N 42°41' E 009°36'1417.3
2016-Jul-22 23:32N 42°55' E 009°32'1515.1
2016-Jul-22 22:33N 43°06' E 009°18'1817.8
2016-Jul-22 21:33N 43°11' E 008°55'1817.6
2016-Jul-22 20:33N 43°17' E 008°32'1817.7
2016-Jul-22 19:33N 43°24' E 008°09'1717.2
2016-Jul-22 18:33N 43°30' E 007°47'1717.3
2016-Jul-22 17:33N 43°36' E 007°25'8 6.9
2016-Jul-22 16:23N 43°42' E 007°17'0 0.0
2016-Jul-22 15:33N 43°42' E 007°17'0 0.0
2016-Jul-22 14:33N 43°42' E 007°17'1313.5
2016-Jul-22 13:33N 43°32' E 007°30'1818.5
2016-Jul-22 12:33N 43°18' E 007°47'1818.4
2016-Jul-22 11:33N 43°05' E 008°05'1817.7
2016-Jul-22 10:33N 42°53' E 008°23'1817.8
2016-Jul-22 09:33N 42°40' E 008°40'3 0.5
2016-Jul-22 04:33N 42°42' E 008°37'10 9.8
2016-Jul-22 03:33N 42°49' E 008°28'1010.0
2016-Jul-22 02:33N 42°56' E 008°18'1010.0
2016-Jul-22 01:33N 43°03' E 008°08'1010.0
2016-Jul-22 00:34N 43°10' E 007°59'1512.5
2016-Jul-21 23:20N 43°21' E 007°44'1012.8
2016-Jul-21 22:33N 43°28' E 007°34'1312.9
2016-Jul-21 21:33N 43°37' E 007°21'6 5.6
2016-Jul-21 20:33N 43°42' E 007°17'0 0.2
2016-Jul-21 19:33N 43°41' E 007°17'1515.3
2016-Jul-21 18:33N 43°30' E 007°31'2418.2
2016-Jul-21 17:14N 43°13' E 007°55'3717.9
2016-Jul-21 15:10N 42°47' E 008°31'1218.0
2016-Jul-21 14:31N 42°39' E 008°42'4 1.9
2016-Jul-21 12:21N 42°42' E 008°38'1418.0
2016-Jul-21 11:33N 42°52' E 008°24'1818.1
2016-Jul-21 10:33N 43°04' E 008°06'1818.2
2016-Jul-21 09:33N 43°17' E 007°48'1817.7
2016-Jul-21 08:33N 43°30' E 007°31'1515.5
2016-Jul-21 07:33N 43°41' E 007°17'0 0.1
2016-Jul-21 06:33N 43°42' E 007°17'5 5.0
2016-Jul-21 05:33N 43°39' E 007°23'2718.4
2016-Jul-21 04:05N 43°29' E 007°58'918.1
2016-Jul-21 03:33N 43°26' E 008°10'1817.7
2016-Jul-21 02:33N 43°19' E 008°32'1817.7
2016-Jul-21 01:34N 43°13' E 008°55'1817.7
2016-Jul-21 00:33N 43°06' E 009°18'7016.7
2016-Jul-20 20:22N 41°57' E 009°34'2117.4
2016-Jul-20 19:09N 41°37' E 009°24'3 0.3
2016-Jul-20 09:32N 41°40' E 009°26'2118.4
2016-Jul-20 08:22N 42°00' E 009°36'6416.8
2016-Jul-20 04:34N 43°04' E 009°25'1818.1
2016-Jul-20 03:33N 43°10' E 009°02'1818.2
2016-Jul-20 02:33N 43°17' E 008°38'1818.2
2016-Jul-20 01:33N 43°23' E 008°15'1817.8
2016-Jul-20 00:34N 43°29' E 007°52'1717.3
2016-Jul-19 23:33N 43°36' E 007°30'1110.7
2016-Jul-19 22:33N 43°42' E 007°17'0 0.0
2016-Jul-19 21:34N 43°42' E 007°17'6 6.4
2016-Jul-19 20:33N 43°36' E 007°23'1818.4
2016-Jul-19 19:33N 43°24' E 007°41'1818.4
2016-Jul-19 18:33N 43°11' E 007°59'1818.1
2016-Jul-19 17:33N 42°58' E 008°16'1817.7
2016-Jul-19 16:33N 42°46' E 008°33'15 7.3
2016-Jul-19 14:33N 42°34' E 008°46'1717.2
2016-Jul-19 13:34N 42°47' E 008°31'1818.0
2016-Jul-19 12:32N 42°60' E 008°13'1717.9
2016-Jul-19 11:34N 43°12' E 007°56'2118.0
2016-Jul-19 10:23N 43°27' E 007°35'1518.0
2016-Jul-19 09:34N 43°38' E 007°20'5 4.7
2016-Jul-19 08:33N 43°42' E 007°17'0 0.2
2016-Jul-19 07:33N 43°41' E 007°17'5217.3
2016-Jul-19 04:33N 43°22' E 008°24'1717.4
2016-Jul-19 03:33N 43°16' E 008°46'1917.8
2016-Jul-19 02:29N 43°08' E 009°10'1717.9
2016-Jul-19 01:33N 43°01' E 009°31'1818.3
2016-Jul-19 00:33N 42°43' E 009°35'3817.9
2016-Jul-18 22:27N 42°06' E 009°37'5410.4
2016-Jul-18 17:15N 41°11' E 009°37'1217.7
2016-Jul-18 16:33N 40°59' E 009°41'2 2.0
2016-Jul-18 15:19N 40°59' E 009°38'6617.4
2016-Jul-18 11:32N 42°04' E 009°51'1817.9
2016-Jul-18 10:33N 42°22' E 009°55'2218.1
2016-Jul-18 09:20N 42°44' E 009°59'1618.2
2016-Jul-18 08:25N 42°60' E 010°03'1618.2
2016-Jul-18 07:33N 43°15' E 010°07'1817.5
2016-Jul-18 06:33N 43°32' E 010°15'2 2.5
2016-Jul-18 05:34N 43°33' E 010°18'0 0.0
2016-Jul-18 04:33N 43°33' E 010°18'5 4.7
2016-Jul-18 03:33N 43°30' E 010°13'1717.5
2016-Jul-18 02:33N 43°13' E 010°07'3517.4
2016-Jul-18 00:33N 42°39' E 009°58'2017.0
2016-Jul-17 23:23N 42°19' E 009°55'1417.4
2016-Jul-17 22:33N 42°05' E 009°53'32 1.4
2016-Jul-16 23:06N 42°36' E 009°57'1315.6
2016-Jul-16 22:15N 42°50' E 009°60'1115.8
2016-Jul-16 21:33N 43°00' E 010°02'1616.1
2016-Jul-16 20:33N 43°16' E 010°07'1615.6
2016-Jul-16 19:33N 43°31' E 010°13'4 4.0
2016-Jul-16 18:33N 43°33' E 010°18'0 0.0
2016-Jul-16 17:34N 43°33' E 010°18'0 0.0
2016-Jul-16 16:33N 43°33' E 010°18'0 0.0
2016-Jul-16 15:34N 43°33' E 010°18'1212.4
2016-Jul-16 14:33N 43°24' E 010°06'1616.5
2016-Jul-16 13:33N 43°12' E 009°50'1817.5
2016-Jul-16 12:33N 42°58' E 009°37'9 2.3
2016-Jul-16 08:33N 43°06' E 009°42'1717.6
2016-Jul-16 07:34N 43°19' E 009°57'1817.6
2016-Jul-16 06:33N 43°32' E 010°15'3 1.4
2016-Jul-16 04:33N 43°33' E 010°18'7 7.2
2016-Jul-16 03:34N 43°27' E 010°12'1717.3
2016-Jul-16 02:34N 43°10' E 010°07'6 0.2
2016-Jul-14 22:15N 43°04' E 010°04'1318.7
2016-Jul-14 21:33N 43°17' E 010°08'1616.2
2016-Jul-14 20:34N 43°32' E 010°16'2 1.9
2016-Jul-14 19:34N 43°33' E 010°18'0 0.5
2016-Jul-14 18:34N 43°33' E 010°17'1414.4
2016-Jul-14 17:34N 43°23' E 010°04'1716.9
2016-Jul-14 16:34N 43°11' E 009°47'1717.2
2016-Jul-14 15:33N 42°55' E 009°36'7 2.2
2016-Jul-14 12:33N 42°50' E 009°41'1717.5
2016-Jul-14 11:33N 43°02' E 009°59'1717.4
2016-Jul-14 10:33N 43°18' E 010°07'1515.1
2016-Jul-14 09:33N 43°32' E 010°16'2 2.0
2016-Jul-14 08:33N 43°33' E 010°18'0 0.0
2016-Jul-14 07:33N 43°33' E 010°18'  
Track history (hours):
 
Tides and Currents Weather Stations Pressure Air Temp Water Temp Dewpoint Dewpoint Depression Visibility Wind Speed Wind Dir Waves Ship Positions

Sardinia Regina

Last reported at 2016-Jul-24 07:18 UTC. Time now 2016-Jul-24 10:42 UTC.
Position N 43°31' E 007°30'.

Length 146 m; draft 5 m.

Type: Passenger vessel. MMSI: 247079000.

Date/timePositionNaut miles runAvg speedWind from/ knotsBaromVisibWave heightAir tempDewpointWater temp
2016-Jul-24 07:18N 43°31' E 007°30'1317.9
2016-Jul-24 06:34N 43°40' E 007°18'1 1.3
2016-Jul-24 05:33N 43°42' E 007°17'2 1.8
2016-Jul-24 04:33N 43°40' E 007°18'3316.3
2016-Jul-24 02:33N 43°28' E 007°60'1716.7
2016-Jul-24 01:33N 43°22' E 008°21'1616.4
2016-Jul-24 00:33N 43°16' E 008°43'1616.2
2016-Jul-23 23:33N 43°10' E 009°04'1615.7
2016-Jul-23 22:33N 43°04' E 009°23'25 1.1
2016-Jul-23 00:21N 42°41' E 009°36'1417.3
2016-Jul-22 23:32N 42°55' E 009°32'1515.1
2016-Jul-22 22:33N 43°06' E 009°18'1817.8
2016-Jul-22 21:33N 43°11' E 008°55'1817.6
2016-Jul-22 20:33N 43°17' E 008°32'1817.7
2016-Jul-22 19:33N 43°24' E 008°09'1717.2
2016-Jul-22 18:33N 43°30' E 007°47'1717.3
2016-Jul-22 17:33N 43°36' E 007°25'8 6.9
2016-Jul-22 16:23N 43°42' E 007°17'0 0.0
2016-Jul-22 15:33N 43°42' E 007°17'0 0.0
2016-Jul-22 14:33N 43°42' E 007°17'1313.5
2016-Jul-22 13:33N 43°32' E 007°30'1818.5
2016-Jul-22 12:33N 43°18' E 007°47'1818.4
2016-Jul-22 11:33N 43°05' E 008°05'1817.7
2016-Jul-22 10:33N 42°53' E 008°23'1817.8
2016-Jul-22 09:33N 42°40' E 008°40'3 0.5
2016-Jul-22 04:33N 42°42' E 008°37'10 9.8
2016-Jul-22 03:33N 42°49' E 008°28'1010.0
2016-Jul-22 02:33N 42°56' E 008°18'1010.0
2016-Jul-22 01:33N 43°03' E 008°08'1010.0
2016-Jul-22 00:34N 43°10' E 007°59'1512.5
2016-Jul-21 23:20N 43°21' E 007°44'1012.8
2016-Jul-21 22:33N 43°28' E 007°34'1312.9
2016-Jul-21 21:33N 43°37' E 007°21'6 5.6
2016-Jul-21 20:33N 43°42' E 007°17'0 0.2
2016-Jul-21 19:33N 43°41' E 007°17'1515.3
2016-Jul-21 18:33N 43°30' E 007°31'2418.2
2016-Jul-21 17:14N 43°13' E 007°55'3717.9
2016-Jul-21 15:10N 42°47' E 008°31'1218.0
2016-Jul-21 14:31N 42°39' E 008°42'4 1.9
2016-Jul-21 12:21N 42°42' E 008°38'1418.0
2016-Jul-21 11:33N 42°52' E 008°24'1818.1
2016-Jul-21 10:33N 43°04' E 008°06'1818.2
2016-Jul-21 09:33N 43°17' E 007°48'1817.7
2016-Jul-21 08:33N 43°30' E 007°31'1515.5
2016-Jul-21 07:33N 43°41' E 007°17'0 0.1
2016-Jul-21 06:33N 43°42' E 007°17'5 5.0
2016-Jul-21 05:33N 43°39' E 007°23'2718.4
2016-Jul-21 04:05N 43°29' E 007°58'918.1
2016-Jul-21 03:33N 43°26' E 008°10'1817.7
2016-Jul-21 02:33N 43°19' E 008°32'1817.7
2016-Jul-21 01:34N 43°13' E 008°55'1817.7
2016-Jul-21 00:33N 43°06' E 009°18'7016.7
2016-Jul-20 20:22N 41°57' E 009°34'2117.4
2016-Jul-20 19:09N 41°37' E 009°24'3 0.3
2016-Jul-20 09:32N 41°40' E 009°26'2118.4
2016-Jul-20 08:22N 42°00' E 009°36'6416.8
2016-Jul-20 04:34N 43°04' E 009°25'1818.1
2016-Jul-20 03:33N 43°10' E 009°02'1818.2
2016-Jul-20 02:33N 43°17' E 008°38'1818.2
2016-Jul-20 01:33N 43°23' E 008°15'1817.8
2016-Jul-20 00:34N 43°29' E 007°52'1717.3
2016-Jul-19 23:33N 43°36' E 007°30'1110.7
2016-Jul-19 22:33N 43°42' E 007°17'0 0.0
2016-Jul-19 21:34N 43°42' E 007°17'6 6.4
2016-Jul-19 20:33N 43°36' E 007°23'1818.4
2016-Jul-19 19:33N 43°24' E 007°41'1818.4
2016-Jul-19 18:33N 43°11' E 007°59'1818.1
2016-Jul-19 17:33N 42°58' E 008°16'1817.7
2016-Jul-19 16:33N 42°46' E 008°33'15 7.3
2016-Jul-19 14:33N 42°34' E 008°46'1717.2
2016-Jul-19 13:34N 42°47' E 008°31'1818.0
2016-Jul-19 12:32N 42°60' E 008°13'1717.9
2016-Jul-19 11:34N 43°12' E 007°56'2118.0
2016-Jul-19 10:23N 43°27' E 007°35'1518.0
2016-Jul-19 09:34N 43°38' E 007°20'5 4.7
2016-Jul-19 08:33N 43°42' E 007°17'0 0.2
2016-Jul-19 07:33N 43°41' E 007°17'5217.3
2016-Jul-19 04:33N 43°22' E 008°24'1717.4
2016-Jul-19 03:33N 43°16' E 008°46'1917.8
2016-Jul-19 02:29N 43°08' E 009°10'1717.9
2016-Jul-19 01:33N 43°01' E 009°31'1818.3
2016-Jul-19 00:33N 42°43' E 009°35'3817.9
2016-Jul-18 22:27N 42°06' E 009°37'5410.4
2016-Jul-18 17:15N 41°11' E 009°37'1217.7
2016-Jul-18 16:33N 40°59' E 009°41'2 2.0
2016-Jul-18 15:19N 40°59' E 009°38'6617.4
2016-Jul-18 11:32N 42°04' E 009°51'1817.9
2016-Jul-18 10:33N 42°22' E 009°55'2218.1
2016-Jul-18 09:20N 42°44' E 009°59'1618.2
2016-Jul-18 08:25N 42°60' E 010°03'1618.2
2016-Jul-18 07:33N 43°15' E 010°07'1817.5
2016-Jul-18 06:33N 43°32' E 010°15'2 2.5
2016-Jul-18 05:34N 43°33' E 010°18'0 0.0
2016-Jul-18 04:33N 43°33' E 010°18'5 4.7
2016-Jul-18 03:33N 43°30' E 010°13'1717.5
2016-Jul-18 02:33N 43°13' E 010°07'3517.4
2016-Jul-18 00:33N 42°39' E 009°58'2017.0
2016-Jul-17 23:23N 42°19' E 009°55'1417.4
2016-Jul-17 22:33N 42°05' E 009°53'32 1.4
2016-Jul-16 23:06N 42°36' E 009°57'1315.6
2016-Jul-16 22:15N 42°50' E 009°60'1115.8
2016-Jul-16 21:33N 43°00' E 010°02'1616.1
2016-Jul-16 20:33N 43°16' E 010°07'1615.6
2016-Jul-16 19:33N 43°31' E 010°13'4 4.0
2016-Jul-16 18:33N 43°33' E 010°18'0 0.0
2016-Jul-16 17:34N 43°33' E 010°18'0 0.0
2016-Jul-16 16:33N 43°33' E 010°18'0 0.0
2016-Jul-16 15:34N 43°33' E 010°18'1212.4
2016-Jul-16 14:33N 43°24' E 010°06'1616.5
2016-Jul-16 13:33N 43°12' E 009°50'1817.5
2016-Jul-16 12:33N 42°58' E 009°37'9 2.3
2016-Jul-16 08:33N 43°06' E 009°42'1717.6
2016-Jul-16 07:34N 43°19' E 009°57'1817.6
2016-Jul-16 06:33N 43°32' E 010°15'3 1.4
2016-Jul-16 04:33N 43°33' E 010°18'7 7.2
2016-Jul-16 03:34N 43°27' E 010°12'1717.3
2016-Jul-16 02:34N 43°10' E 010°07'6 0.2
2016-Jul-14 22:15N 43°04' E 010°04'1318.7
2016-Jul-14 21:33N 43°17' E 010°08'1616.2
2016-Jul-14 20:34N 43°32' E 010°16'2 1.9
2016-Jul-14 19:34N 43°33' E 010°18'0 0.5
2016-Jul-14 18:34N 43°33' E 010°17'1414.4
2016-Jul-14 17:34N 43°23' E 010°04'1716.9
2016-Jul-14 16:34N 43°11' E 009°47'1717.2
2016-Jul-14 15:33N 42°55' E 009°36'7 2.2
2016-Jul-14 12:33N 42°50' E 009°41'1717.5
2016-Jul-14 11:33N 43°02' E 009°59'1717.4
2016-Jul-14 10:33N 43°18' E 010°07'1515.1
2016-Jul-14 09:33N 43°32' E 010°16'2 2.0
2016-Jul-14 08:33N 43°33' E 010°18'0 0.0
2016-Jul-14 07:33N 43°33' E 010°18'  

Dump ship's entire track history